sensor_id;sensor_type;location;lat;lon;timestamp;temperature;humidity
22674;DHT22;11504;43.334;21.918;2023-07-31T00:01:42;23.2;100.0
22674;DHT22;11504;43.334;21.918;2023-07-31T00:06:19;23.2;100.0
22674;DHT22;11504;43.334;21.918;2023-07-31T00:10:55;23.2;100.0
22674;DHT22;11504;43.334;21.918;2023-07-31T00:15:32;23.2;100.0
22674;DHT22;11504;43.334;21.918;2023-07-31T00:20:10;23.2;100.0
22674;DHT22;11504;43.334;21.918;2023-07-31T00:24:47;23.2;100.0
22674;DHT22;11504;43.334;21.918;2023-07-31T00:29:23;23.2;100.0
22674;DHT22;11504;43.334;21.918;2023-07-31T00:33:59;23.2;100.0
22674;DHT22;11504;43.334;21.918;2023-07-31T00:38:35;23.2;100.0
22674;DHT22;11504;43.334;21.918;2023-07-31T00:43:12;23.2;100.0
22674;DHT22;11504;43.334;21.918;2023-07-31T00:47:49;23.3;100.0
22674;DHT22;11504;43.334;21.918;2023-07-31T00:52:26;23.3;100.0
22674;DHT22;11504;43.334;21.918;2023-07-31T00:57:04;23.3;100.0
22674;DHT22;11504;43.334;21.918;2023-07-31T01:01:42;23.3;100.0
22674;DHT22;11504;43.334;21.918;2023-07-31T01:06:32;23.3;100.0
22674;DHT22;11504;43.334;21.918;2023-07-31T01:11:53;23.3;100.0
22674;DHT22;11504;43.334;21.918;2023-07-31T01:16:42;23.3;100.0
22674;DHT22;11504;43.334;21.918;2023-07-31T01:21:47;23.3;100.0
22674;DHT22;11504;43.334;21.918;2023-07-31T01:28:04;23.3;100.0
22674;DHT22;11504;43.334;21.918;2023-07-31T01:33:03;23.3;100.0
22674;DHT22;11504;43.334;21.918;2023-07-31T01:37:40;23.3;100.0
22674;DHT22;11504;43.334;21.918;2023-07-31T01:42:17;23.3;100.0
22674;DHT22;11504;43.334;21.918;2023-07-31T01:46:53;23.3;100.0
22674;DHT22;11504;43.334;21.918;2023-07-31T01:51:30;23.3;100.0
22674;DHT22;11504;43.334;21.918;2023-07-31T01:56:06;23.3;100.0
22674;DHT22;11504;43.334;21.918;2023-07-31T02:00:43;23.3;100.0
22674;DHT22;11504;43.334;21.918;2023-07-31T02:05:20;23.3;100.0
22674;DHT22;11504;43.334;21.918;2023-07-31T02:09:57;23.3;100.0
22674;DHT22;11504;43.334;21.918;2023-07-31T02:14:34;23.3;100.0
22674;DHT22;11504;43.334;21.918;2023-07-31T02:19:10;23.3;100.0
22674;DHT22;11504;43.334;21.918;2023-07-31T02:23:47;23.3;100.0
22674;DHT22;11504;43.334;21.918;2023-07-31T02:28:24;23.3;100.0
22674;DHT22;11504;43.334;21.918;2023-07-31T02:33:02;23.3;100.0
22674;DHT22;11504;43.334;21.918;2023-07-31T02:37:41;23.2;100.0
22674;DHT22;11504;43.334;21.918;2023-07-31T02:42:17;23.2;100.0
22674;DHT22;11504;43.334;21.918;2023-07-31T02:46:54;23.1;100.0
22674;DHT22;11504;43.334;21.918;2023-07-31T02:51:30;23.1;100.0
22674;DHT22;11504;43.334;21.918;2023-07-31T02:56:07;23.1;100.0
22674;DHT22;11504;43.334;21.918;2023-07-31T03:00:44;23.0;100.0
22674;DHT22;11504;43.334;21.918;2023-07-31T03:05:21;23.0;100.0
22674;DHT22;11504;43.334;21.918;2023-07-31T03:09:57;23.0;100.0
22674;DHT22;11504;43.334;21.918;2023-07-31T03:14:34;23.0;100.0
22674;DHT22;11504;43.334;21.918;2023-07-31T03:19:10;23.0;100.0
22674;DHT22;11504;43.334;21.918;2023-07-31T03:23:47;23.0;100.0
22674;DHT22;11504;43.334;21.918;2023-07-31T03:28:23;23.0;100.0
22674;DHT22;11504;43.334;21.918;2023-07-31T03:33:00;23.0;100.0
22674;DHT22;11504;43.334;21.918;2023-07-31T03:37:37;23.0;100.0
22674;DHT22;11504;43.334;21.918;2023-07-31T03:42:13;23.0;100.0
22674;DHT22;11504;43.334;21.918;2023-07-31T03:46:50;23.1;100.0
22674;DHT22;11504;43.334;21.918;2023-07-31T03:51:27;23.1;100.0
22674;DHT22;11504;43.334;21.918;2023-07-31T03:56:04;23.1;100.0
22674;DHT22;11504;43.334;21.918;2023-07-31T04:00:41;23.1;100.0
22674;DHT22;11504;43.334;21.918;2023-07-31T04:05:18;23.1;100.0
22674;DHT22;11504;43.334;21.918;2023-07-31T04:09:57;23.1;100.0
22674;DHT22;11504;43.334;21.918;2023-07-31T04:14:33;23.1;100.0
22674;DHT22;11504;43.334;21.918;2023-07-31T04:19:10;23.2;100.0
22674;DHT22;11504;43.334;21.918;2023-07-31T04:23:46;23.2;100.0
22674;DHT22;11504;43.334;21.918;2023-07-31T04:28:23;23.2;100.0
22674;DHT22;11504;43.334;21.918;2023-07-31T04:32:59;23.2;100.0
22674;DHT22;11504;43.334;21.918;2023-07-31T04:37:35;23.3;100.0
22674;DHT22;11504;43.334;21.918;2023-07-31T04:42:12;23.3;100.0
22674;DHT22;11504;43.334;21.918;2023-07-31T04:46:48;23.4;100.0
22674;DHT22;11504;43.334;21.918;2023-07-31T04:51:25;23.4;100.0
22674;DHT22;11504;43.334;21.918;2023-07-31T04:56:02;23.4;100.0
22674;DHT22;11504;43.334;21.918;2023-07-31T05:00:40;24.0;100.0
22674;DHT22;11504;43.334;21.918;2023-07-31T05:05:17;24.0;100.0
22674;DHT22;11504;43.334;21.918;2023-07-31T05:09:54;24.5;100.0
22674;DHT22;11504;43.334;21.918;2023-07-31T05:14:30;24.5;100.0
22674;DHT22;11504;43.334;21.918;2023-07-31T05:19:07;25.6;100.0
22674;DHT22;11504;43.334;21.918;2023-07-31T05:23:43;25.6;100.0
22674;DHT22;11504;43.334;21.918;2023-07-31T05:28:21;26.6;100.0
22674;DHT22;11504;43.334;21.918;2023-07-31T05:32:57;26.6;100.0
22674;DHT22;11504;43.334;21.918;2023-07-31T05:37:33;27.0;100.0
22674;DHT22;11504;43.334;21.918;2023-07-31T05:42:10;27.0;100.0
22674;DHT22;11504;43.334;21.918;2023-07-31T05:46:46;27.4;100.0
22674;DHT22;11504;43.334;21.918;2023-07-31T05:51:23;27.4;100.0
22674;DHT22;11504;43.334;21.918;2023-07-31T05:55:59;27.4;100.0
22674;DHT22;11504;43.334;21.918;2023-07-31T06:00:35;30.7;100.0
22674;DHT22;11504;43.334;21.918;2023-07-31T06:05:13;30.7;100.0
22674;DHT22;11504;43.334;21.918;2023-07-31T06:09:50;34.0;100.0
22674;DHT22;11504;43.334;21.918;2023-07-31T06:14:27;34.0;100.0
22674;DHT22;11504;43.334;21.918;2023-07-31T06:19:03;33.0;100.0
22674;DHT22;11504;43.334;21.918;2023-07-31T06:23:40;33.0;100.0
22674;DHT22;11504;43.334;21.918;2023-07-31T06:28:17;31.9;100.0
22674;DHT22;11504;43.334;21.918;2023-07-31T06:32:54;31.9;100.0
22674;DHT22;11504;43.334;21.918;2023-07-31T06:37:30;32.0;100.0
22674;DHT22;11504;43.334;21.918;2023-07-31T06:42:07;32.0;100.0
22674;DHT22;11504;43.334;21.918;2023-07-31T06:46:44;32.0;100.0
22674;DHT22;11504;43.334;21.918;2023-07-31T06:51:20;32.0;100.0
22674;DHT22;11504;43.334;21.918;2023-07-31T06:55:57;32.0;100.0
22674;DHT22;11504;43.334;21.918;2023-07-31T07:00:33;30.4;100.0
22674;DHT22;11504;43.334;21.918;2023-07-31T07:05:10;30.4;100.0
22674;DHT22;11504;43.334;21.918;2023-07-31T07:09:47;28.8;100.0
22674;DHT22;11504;43.334;21.918;2023-07-31T07:14:23;28.8;100.0
22674;DHT22;11504;43.334;21.918;2023-07-31T07:18:59;30.2;100.0
22674;DHT22;11504;43.334;21.918;2023-07-31T07:23:36;30.2;100.0
22674;DHT22;11504;43.334;21.918;2023-07-31T07:28:13;31.5;100.0
22674;DHT22;11504;43.334;21.918;2023-07-31T07:32:50;31.5;100.0
22674;DHT22;11504;43.334;21.918;2023-07-31T07:37:27;30.4;100.0
22674;DHT22;11504;43.334;21.918;2023-07-31T07:42:04;30.4;100.0
22674;DHT22;11504;43.334;21.918;2023-07-31T07:46:41;29.3;100.0
22674;DHT22;11504;43.334;21.918;2023-07-31T07:51:19;29.3;100.0
22674;DHT22;11504;43.334;21.918;2023-07-31T07:55:56;29.3;100.0
22674;DHT22;11504;43.334;21.918;2023-07-31T08:00:32;28.6;100.0
22674;DHT22;11504;43.334;21.918;2023-07-31T08:05:09;28.6;100.0
22674;DHT22;11504;43.334;21.918;2023-07-31T08:09:45;28.0;100.0
22674;DHT22;11504;43.334;21.918;2023-07-31T08:14:22;28.0;100.0
22674;DHT22;11504;43.334;21.918;2023-07-31T08:18:58;29.4;100.0
22674;DHT22;11504;43.334;21.918;2023-07-31T08:23:34;29.4;100.0
22674;DHT22;11504;43.334;21.918;2023-07-31T08:28:10;30.9;100.0
22674;DHT22;11504;43.334;21.918;2023-07-31T08:32:47;30.9;100.0
22674;DHT22;11504;43.334;21.918;2023-07-31T08:37:24;31.8;100.0
22674;DHT22;11504;43.334;21.918;2023-07-31T08:42:01;31.8;100.0
22674;DHT22;11504;43.334;21.918;2023-07-31T08:46:39;32.8;100.0
22674;DHT22;11504;43.334;21.918;2023-07-31T08:51:19;32.8;100.0
22674;DHT22;11504;43.334;21.918;2023-07-31T08:55:59;32.8;100.0
22674;DHT22;11504;43.334;21.918;2023-07-31T09:00:40;32.9;100.0
22674;DHT22;11504;43.334;21.918;2023-07-31T09:05:23;32.9;100.0
22674;DHT22;11504;43.334;21.918;2023-07-31T09:10:08;33.0;100.0
22674;DHT22;11504;43.334;21.918;2023-07-31T09:14:47;33.0;100.0
22674;DHT22;11504;43.334;21.918;2023-07-31T09:19:26;33.2;100.0
22674;DHT22;11504;43.334;21.918;2023-07-31T09:24:25;33.2;100.0
22674;DHT22;11504;43.334;21.918;2023-07-31T09:29:19;33.4;100.0
22674;DHT22;11504;43.334;21.918;2023-07-31T09:33:56;33.4;100.0
22674;DHT22;11504;43.334;21.918;2023-07-31T09:38:32;33.4;100.0
22674;DHT22;11504;43.334;21.918;2023-07-31T09:43:11;33.4;100.0
22674;DHT22;11504;43.334;21.918;2023-07-31T09:47:53;33.4;100.0
22674;DHT22;11504;43.334;21.918;2023-07-31T09:52:30;33.4;100.0
22674;DHT22;11504;43.334;21.918;2023-07-31T09:57:09;32.8;100.0
22674;DHT22;11504;43.334;21.918;2023-07-31T10:01:50;32.8;100.0
22674;DHT22;11504;43.334;21.918;2023-07-31T10:06:35;32.8;100.0
22674;DHT22;11504;43.334;21.918;2023-07-31T10:11:22;32.3;100.0
22674;DHT22;11504;43.334;21.918;2023-07-31T10:16:15;32.3;100.0
22674;DHT22;11504;43.334;21.918;2023-07-31T10:20:56;32.2;100.0
22674;DHT22;11504;43.334;21.918;2023-07-31T10:25:36;32.2;100.0
22674;DHT22;11504;43.334;21.918;2023-07-31T10:30:22;32.1;100.0
22674;DHT22;11504;43.334;21.918;2023-07-31T10:35:11;32.1;100.0
22674;DHT22;11504;43.334;21.918;2023-07-31T10:40:00;31.8;100.0
22674;DHT22;11504;43.334;21.918;2023-07-31T10:44:47;31.8;100.0
22674;DHT22;11504;43.334;21.918;2023-07-31T10:49:23;31.5;100.0
22674;DHT22;11504;43.334;21.918;2023-07-31T10:54:11;31.5;100.0
22674;DHT22;11504;43.334;21.918;2023-07-31T10:59:01;31.6;100.0
22674;DHT22;11504;43.334;21.918;2023-07-31T11:03:43;31.6;100.0
22674;DHT22;11504;43.334;21.918;2023-07-31T11:08:27;31.6;100.0
22674;DHT22;11504;43.334;21.918;2023-07-31T11:13:07;31.6;100.0
22674;DHT22;11504;43.334;21.918;2023-07-31T11:17:43;31.4;100.0
22674;DHT22;11504;43.334;21.918;2023-07-31T11:22:20;31.4;100.0
22674;DHT22;11504;43.334;21.918;2023-07-31T11:26:57;31.3;100.0
22674;DHT22;11504;43.334;21.918;2023-07-31T11:31:42;31.3;100.0
22674;DHT22;11504;43.334;21.918;2023-07-31T11:36:21;31.3;100.0
22674;DHT22;11504;43.334;21.918;2023-07-31T11:41:00;31.4;100.0
22674;DHT22;11504;43.334;21.918;2023-07-31T11:45:40;31.4;100.0
22674;DHT22;11504;43.334;21.918;2023-07-31T11:50:24;31.4;100.0
22674;DHT22;11504;43.334;21.918;2023-07-31T11:55:02;31.4;100.0
22674;DHT22;11504;43.334;21.918;2023-07-31T11:59:45;31.4;100.0
22674;DHT22;11504;43.334;21.918;2023-07-31T12:04:24;31.4;100.0
22674;DHT22;11504;43.334;21.918;2023-07-31T12:09:03;31.4;100.0
22674;DHT22;11504;43.334;21.918;2023-07-31T12:13:41;31.4;100.0
22674;DHT22;11504;43.334;21.918;2023-07-31T12:18:20;31.5;100.0
22674;DHT22;11504;43.334;21.918;2023-07-31T12:22:57;31.5;100.0
22674;DHT22;11504;43.334;21.918;2023-07-31T12:27:34;31.6;100.0
22674;DHT22;11504;43.334;21.918;2023-07-31T12:32:20;31.6;100.0
22674;DHT22;11504;43.334;21.918;2023-07-31T12:37:00;31.4;100.0
22674;DHT22;11504;43.334;21.918;2023-07-31T12:41:37;31.4;100.0
22674;DHT22;11504;43.334;21.918;2023-07-31T12:46:14;31.4;100.0
22674;DHT22;11504;43.334;21.918;2023-07-31T12:50:51;31.2;100.0
22674;DHT22;11504;43.334;21.918;2023-07-31T12:55:28;31.2;100.0
22674;DHT22;11504;43.334;21.918;2023-07-31T13:00:07;31.2;100.0
22674;DHT22;11504;43.334;21.918;2023-07-31T13:04:50;31.2;100.0
22674;DHT22;11504;43.334;21.918;2023-07-31T13:09:27;31.3;100.0
22674;DHT22;11504;43.334;21.918;2023-07-31T13:14:03;31.3;100.0
22674;DHT22;11504;43.334;21.918;2023-07-31T13:18:40;31.2;100.0
22674;DHT22;11504;43.334;21.918;2023-07-31T13:23:16;31.2;100.0
22674;DHT22;11504;43.334;21.918;2023-07-31T13:27:52;31.1;100.0
22674;DHT22;11504;43.334;21.918;2023-07-31T13:32:29;31.1;100.0
22674;DHT22;11504;43.334;21.918;2023-07-31T13:37:06;31.0;100.0
22674;DHT22;11504;43.334;21.918;2023-07-31T13:41:42;31.0;100.0
22674;DHT22;11504;43.334;21.918;2023-07-31T13:46:18;31.0;100.0
22674;DHT22;11504;43.334;21.918;2023-07-31T13:50:54;31.0;100.0
22674;DHT22;11504;43.334;21.918;2023-07-31T13:55:30;31.0;100.0
22674;DHT22;11504;43.334;21.918;2023-07-31T14:00:09;30.7;100.0
22674;DHT22;11504;43.334;21.918;2023-07-31T14:04:50;30.7;100.0
22674;DHT22;11504;43.334;21.918;2023-07-31T14:09:26;30.4;100.0
22674;DHT22;11504;43.334;21.918;2023-07-31T14:14:03;30.4;100.0
22674;DHT22;11504;43.334;21.918;2023-07-31T14:18:41;30.2;100.0
22674;DHT22;11504;43.334;21.918;2023-07-31T14:23:18;30.2;100.0
22674;DHT22;11504;43.334;21.918;2023-07-31T14:27:55;30.1;100.0
22674;DHT22;11504;43.334;21.918;2023-07-31T14:32:31;30.1;100.0
22674;DHT22;11504;43.334;21.918;2023-07-31T14:37:08;30.0;100.0
22674;DHT22;11504;43.334;21.918;2023-07-31T14:41:45;30.0;100.0
22674;DHT22;11504;43.334;21.918;2023-07-31T14:46:22;30.0;100.0
22674;DHT22;11504;43.334;21.918;2023-07-31T14:51:00;29.8;100.0
22674;DHT22;11504;43.334;21.918;2023-07-31T14:55:36;29.8;100.0
22674;DHT22;11504;43.334;21.918;2023-07-31T15:00:14;29.6;100.0
22674;DHT22;11504;43.334;21.918;2023-07-31T15:04:51;29.6;100.0
22674;DHT22;11504;43.334;21.918;2023-07-31T15:09:28;29.5;100.0
22674;DHT22;11504;43.334;21.918;2023-07-31T15:14:05;29.5;100.0
22674;DHT22;11504;43.334;21.918;2023-07-31T15:18:42;29.4;100.0
22674;DHT22;11504;43.334;21.918;2023-07-31T15:23:19;29.4;100.0
22674;DHT22;11504;43.334;21.918;2023-07-31T15:27:55;29.4;100.0
22674;DHT22;11504;43.334;21.918;2023-07-31T15:32:32;29.4;100.0
22674;DHT22;11504;43.334;21.918;2023-07-31T15:37:09;29.2;100.0
22674;DHT22;11504;43.334;21.918;2023-07-31T15:41:46;29.2;100.0
22674;DHT22;11504;43.334;21.918;2023-07-31T15:46:22;29.2;100.0
22674;DHT22;11504;43.334;21.918;2023-07-31T15:50:59;29.1;100.0
22674;DHT22;11504;43.334;21.918;2023-07-31T15:55:36;29.1;100.0
22674;DHT22;11504;43.334;21.918;2023-07-31T16:00:13;29.0;100.0
22674;DHT22;11504;43.334;21.918;2023-07-31T16:04:51;29.0;100.0
22674;DHT22;11504;43.334;21.918;2023-07-31T16:09:27;28.9;100.0
22674;DHT22;11504;43.334;21.918;2023-07-31T16:14:03;28.9;100.0
22674;DHT22;11504;43.334;21.918;2023-07-31T16:18:40;28.8;100.0
22674;DHT22;11504;43.334;21.918;2023-07-31T16:23:16;28.8;100.0
22674;DHT22;11504;43.334;21.918;2023-07-31T16:27:52;28.6;100.0
22674;DHT22;11504;43.334;21.918;2023-07-31T16:32:29;28.6;100.0
22674;DHT22;11504;43.334;21.918;2023-07-31T16:37:06;28.6;100.0
22674;DHT22;11504;43.334;21.918;2023-07-31T16:41:43;28.6;100.0
22674;DHT22;11504;43.334;21.918;2023-07-31T16:46:19;28.6;100.0
22674;DHT22;11504;43.334;21.918;2023-07-31T16:50:56;28.5;100.0
22674;DHT22;11504;43.334;21.918;2023-07-31T16:55:33;28.5;100.0
22674;DHT22;11504;43.334;21.918;2023-07-31T17:00:11;28.4;100.0
22674;DHT22;11504;43.334;21.918;2023-07-31T17:04:50;28.4;100.0
22674;DHT22;11504;43.334;21.918;2023-07-31T17:09:27;28.2;100.0
22674;DHT22;11504;43.334;21.918;2023-07-31T17:14:04;28.2;100.0
22674;DHT22;11504;43.334;21.918;2023-07-31T17:18:41;28.0;100.0
22674;DHT22;11504;43.334;21.918;2023-07-31T17:23:18;28.0;100.0
22674;DHT22;11504;43.334;21.918;2023-07-31T17:27:54;27.9;100.0
22674;DHT22;11504;43.334;21.918;2023-07-31T17:32:31;27.9;100.0
22674;DHT22;11504;43.334;21.918;2023-07-31T17:37:07;27.7;100.0
22674;DHT22;11504;43.334;21.918;2023-07-31T17:41:44;27.7;100.0
22674;DHT22;11504;43.334;21.918;2023-07-31T17:46:20;27.7;100.0
22674;DHT22;11504;43.334;21.918;2023-07-31T17:50:57;27.5;100.0
22674;DHT22;11504;43.334;21.918;2023-07-31T17:55:34;27.5;100.0
22674;DHT22;11504;43.334;21.918;2023-07-31T18:00:12;27.2;100.0
22674;DHT22;11504;43.334;21.918;2023-07-31T18:04:50;27.2;100.0
22674;DHT22;11504;43.334;21.918;2023-07-31T18:09:26;27.0;100.0
22674;DHT22;11504;43.334;21.918;2023-07-31T18:14:03;27.0;100.0
22674;DHT22;11504;43.334;21.918;2023-07-31T18:18:40;26.8;100.0
22674;DHT22;11504;43.334;21.918;2023-07-31T18:23:16;26.8;100.0
22674;DHT22;11504;43.334;21.918;2023-07-31T18:27:53;26.5;100.0
22674;DHT22;11504;43.334;21.918;2023-07-31T18:32:30;26.5;100.0
22674;DHT22;11504;43.334;21.918;2023-07-31T18:37:07;26.2;100.0
22674;DHT22;11504;43.334;21.918;2023-07-31T18:41:43;26.2;100.0
22674;DHT22;11504;43.334;21.918;2023-07-31T18:46:20;26.2;100.0
22674;DHT22;11504;43.334;21.918;2023-07-31T18:50:56;26.0;100.0
22674;DHT22;11504;43.334;21.918;2023-07-31T18:55:33;26.0;100.0
22674;DHT22;11504;43.334;21.918;2023-07-31T19:00:10;25.8;100.0
22674;DHT22;11504;43.334;21.918;2023-07-31T19:04:47;25.8;100.0
22674;DHT22;11504;43.334;21.918;2023-07-31T19:09:29;25.7;100.0
22674;DHT22;11504;43.334;21.918;2023-07-31T19:14:09;25.7;100.0
22674;DHT22;11504;43.334;21.918;2023-07-31T19:18:45;25.5;100.0
22674;DHT22;11504;43.334;21.918;2023-07-31T19:23:22;25.5;100.0
22674;DHT22;11504;43.334;21.918;2023-07-31T19:27:59;25.4;100.0
22674;DHT22;11504;43.334;21.918;2023-07-31T19:32:36;25.4;100.0
22674;DHT22;11504;43.334;21.918;2023-07-31T19:37:13;25.2;100.0
22674;DHT22;11504;43.334;21.918;2023-07-31T19:41:49;25.2;100.0
22674;DHT22;11504;43.334;21.918;2023-07-31T19:46:26;25.2;100.0
22674;DHT22;11504;43.334;21.918;2023-07-31T19:51:03;25.1;100.0
22674;DHT22;11504;43.334;21.918;2023-07-31T19:55:40;25.1;100.0
22674;DHT22;11504;43.334;21.918;2023-07-31T20:00:16;24.8;100.0
22674;DHT22;11504;43.334;21.918;2023-07-31T20:04:53;24.8;100.0
22674;DHT22;11504;43.334;21.918;2023-07-31T20:09:30;24.5;100.0
22674;DHT22;11504;43.334;21.918;2023-07-31T20:14:07;24.5;100.0
22674;DHT22;11504;43.334;21.918;2023-07-31T20:18:45;24.2;100.0
22674;DHT22;11504;43.334;21.918;2023-07-31T20:23:21;24.2;100.0
22674;DHT22;11504;43.334;21.918;2023-07-31T20:27:58;24.0;100.0
22674;DHT22;11504;43.334;21.918;2023-07-31T20:32:34;24.0;100.0
22674;DHT22;11504;43.334;21.918;2023-07-31T20:37:11;23.8;100.0
22674;DHT22;11504;43.334;21.918;2023-07-31T20:41:47;23.8;100.0
22674;DHT22;11504;43.334;21.918;2023-07-31T20:46:24;23.8;100.0
22674;DHT22;11504;43.334;21.918;2023-07-31T20:51:01;23.6;100.0
22674;DHT22;11504;43.334;21.918;2023-07-31T20:55:39;23.6;100.0
22674;DHT22;11504;43.334;21.918;2023-07-31T21:00:17;23.5;100.0
22674;DHT22;11504;43.334;21.918;2023-07-31T21:04:54;23.5;100.0
22674;DHT22;11504;43.334;21.918;2023-07-31T21:09:31;23.3;100.0
22674;DHT22;11504;43.334;21.918;2023-07-31T21:14:09;23.3;100.0
22674;DHT22;11504;43.334;21.918;2023-07-31T21:18:45;23.3;100.0
22674;DHT22;11504;43.334;21.918;2023-07-31T21:23:22;23.3;100.0
22674;DHT22;11504;43.334;21.918;2023-07-31T21:27:58;23.3;100.0
22674;DHT22;11504;43.334;21.918;2023-07-31T21:32:35;23.3;100.0
22674;DHT22;11504;43.334;21.918;2023-07-31T21:37:11;23.3;100.0
22674;DHT22;11504;43.334;21.918;2023-07-31T21:41:47;23.0;100.0
22674;DHT22;11504;43.334;21.918;2023-07-31T21:46:24;23.0;100.0
22674;DHT22;11504;43.334;21.918;2023-07-31T21:51:00;22.8;100.0
22674;DHT22;11504;43.334;21.918;2023-07-31T21:55:36;22.8;100.0
22674;DHT22;11504;43.334;21.918;2023-07-31T22:00:14;22.4;100.0
22674;DHT22;11504;43.334;21.918;2023-07-31T22:04:51;22.4;100.0
22674;DHT22;11504;43.334;21.918;2023-07-31T22:09:27;22.0;100.0
22674;DHT22;11504;43.334;21.918;2023-07-31T22:14:04;22.0;100.0
22674;DHT22;11504;43.334;21.918;2023-07-31T22:18:41;21.8;100.0
22674;DHT22;11504;43.334;21.918;2023-07-31T22:23:18;21.8;100.0
22674;DHT22;11504;43.334;21.918;2023-07-31T22:27:55;21.7;100.0
22674;DHT22;11504;43.334;21.918;2023-07-31T22:32:31;21.7;100.0
22674;DHT22;11504;43.334;21.918;2023-07-31T22:37:08;21.7;100.0
22674;DHT22;11504;43.334;21.918;2023-07-31T22:41:45;21.5;100.0
22674;DHT22;11504;43.334;21.918;2023-07-31T22:46:22;21.5;100.0
22674;DHT22;11504;43.334;21.918;2023-07-31T22:50:59;21.4;100.0
22674;DHT22;11504;43.334;21.918;2023-07-31T22:55:36;21.4;100.0
22674;DHT22;11504;43.334;21.918;2023-07-31T23:00:14;21.4;100.0
22674;DHT22;11504;43.334;21.918;2023-07-31T23:04:52;21.4;100.0
22674;DHT22;11504;43.334;21.918;2023-07-31T23:09:29;21.3;100.0
22674;DHT22;11504;43.334;21.918;2023-07-31T23:14:06;21.3;100.0
22674;DHT22;11504;43.334;21.918;2023-07-31T23:18:42;21.2;100.0
22674;DHT22;11504;43.334;21.918;2023-07-31T23:23:19;21.2;100.0
22674;DHT22;11504;43.334;21.918;2023-07-31T23:27:56;21.2;100.0
22674;DHT22;11504;43.334;21.918;2023-07-31T23:32:33;21.2;100.0
22674;DHT22;11504;43.334;21.918;2023-07-31T23:37:09;21.2;100.0
22674;DHT22;11504;43.334;21.918;2023-07-31T23:41:46;21.0;100.0
22674;DHT22;11504;43.334;21.918;2023-07-31T23:46:22;21.0;100.0
22674;DHT22;11504;43.334;21.918;2023-07-31T23:50:59;20.7;100.0
22674;DHT22;11504;43.334;21.918;2023-07-31T23:55:38;20.7;100.0
